createdAt,value
2018-06-21T00:01:32.920Z,26.90
2018-06-21T00:04:00.090Z,27.00
2018-06-21T00:06:27.328Z,27.20
2018-06-21T00:08:54.562Z,25.60
2018-06-21T00:11:21.854Z,27.03
2018-06-21T00:13:49.070Z,25.30
2018-06-21T00:16:16.257Z,25.50
2018-06-21T00:18:43.447Z,25.10
2018-06-21T00:21:10.613Z,25.97
2018-06-21T00:23:37.820Z,25.00
2018-06-21T00:26:05.038Z,24.37
2018-06-21T00:28:32.283Z,27.43
2018-06-21T00:30:59.485Z,25.73
2018-06-21T00:33:26.654Z,25.80
2018-06-21T00:35:53.945Z,24.90
2018-06-21T00:38:21.142Z,25.37
2018-06-21T00:40:48.343Z,25.60
2018-06-21T00:43:15.556Z,24.83
2018-06-21T00:45:42.767Z,25.67
2018-06-21T00:48:10.580Z,26.07
2018-06-21T00:50:37.751Z,26.30
2018-06-21T00:53:04.941Z,26.80
2018-06-21T00:55:43.627Z,25.73
2018-06-21T00:58:10.870Z,27.27
2018-06-21T01:00:38.364Z,26.47
2018-06-21T01:03:05.598Z,26.90
2018-06-21T01:05:32.863Z,26.50
2018-06-21T01:08:00.059Z,23.70
2018-06-21T01:10:27.833Z,23.20
2018-06-21T01:12:55.189Z,23.57
2018-06-21T01:15:22.470Z,23.70
2018-06-21T01:17:49.726Z,24.30
2018-06-21T01:20:16.976Z,23.03
2018-06-21T01:22:44.368Z,24.20
2018-06-21T01:25:11.569Z,24.50
2018-06-21T01:27:39.117Z,24.60
2018-06-21T01:30:06.342Z,25.50
2018-06-21T01:32:33.520Z,23.93
2018-06-21T01:35:00.712Z,24.20
2018-06-21T01:37:27.947Z,24.53
2018-06-21T01:39:55.156Z,25.20
2018-06-21T01:42:22.377Z,25.10
2018-06-21T01:44:49.755Z,26.27
2018-06-21T01:47:16.974Z,24.40
2018-06-21T01:49:44.175Z,25.33
2018-06-21T01:52:11.381Z,25.20
2018-06-21T01:54:38.624Z,25.83
2018-06-21T01:57:05.891Z,28.85
2018-06-21T01:59:33.084Z,28.10
2018-06-21T02:02:00.365Z,27.17
2018-06-21T02:04:27.602Z,27.60
2018-06-21T02:06:54.799Z,28.05
2018-06-21T02:09:21.997Z,25.87
2018-06-21T02:11:49.240Z,24.73
2018-06-21T02:14:16.535Z,23.30
2018-06-21T02:16:43.849Z,24.30
2018-06-21T02:19:11.056Z,22.47
2018-06-21T02:21:38.274Z,22.57
2018-06-21T02:24:06.138Z,21.43
2018-06-21T02:26:33.350Z,21.60
2018-06-21T02:29:00.547Z,22.60
2018-06-21T02:31:27.770Z,19.70
2018-06-21T02:33:55.030Z,21.20
2018-06-21T02:36:22.234Z,20.53
2018-06-21T02:38:49.793Z,22.83
2018-06-21T02:41:17.025Z,20.97
2018-06-21T02:43:44.404Z,20.47
2018-06-21T02:46:11.638Z,20.93
2018-06-21T02:48:38.873Z,19.63
2018-06-21T02:51:06.165Z,20.23
2018-06-21T02:56:07.571Z,20.27
2018-06-21T02:58:34.768Z,21.67
2018-06-21T03:01:02.023Z,20.67
2018-06-21T03:03:29.636Z,19.77
2018-06-21T03:05:56.833Z,20.07
2018-06-21T03:08:24.125Z,20.67
2018-06-21T03:10:51.648Z,19.67
2018-06-21T03:13:18.845Z,18.90
2018-06-21T03:15:46.047Z,20.30
2018-06-21T03:18:13.273Z,21.40
2018-06-21T03:20:40.541Z,19.20
2018-06-21T03:23:07.877Z,20.30
2018-06-21T03:25:35.161Z,21.23
2018-06-21T03:28:02.433Z,19.80
2018-06-21T03:30:29.623Z,21.10
2018-06-21T03:32:56.968Z,20.80
2018-06-21T03:35:24.201Z,19.53
2018-06-21T03:37:51.429Z,20.60
2018-06-21T03:40:18.883Z,20.40
2018-06-21T03:42:46.173Z,22.03
2018-06-21T03:45:14.204Z,17.90
2018-06-21T03:47:41.397Z,23.18
2018-06-21T03:50:08.621Z,7.33
2018-06-21T03:52:35.800Z,6.20
2018-06-21T03:55:03.150Z,6.60
2018-06-21T03:57:30.344Z,4.37
2018-06-21T03:59:57.550Z,3.60
2018-06-21T04:02:24.700Z,3.17
2018-06-21T04:04:51.900Z,3.60
2018-06-21T04:07:19.108Z,4.20
2018-06-21T04:09:46.293Z,4.20
2018-06-21T04:12:13.568Z,4.97
2018-06-21T04:14:40.757Z,5.10
2018-06-21T04:17:07.960Z,5.40
2018-06-21T04:19:35.157Z,6.27
2018-06-21T04:22:02.425Z,7.10
2018-06-21T04:24:29.637Z,7.03
2018-06-21T04:26:56.824Z,6.40
2018-06-21T04:29:24.046Z,6.90
2018-06-21T04:31:51.597Z,6.50
2018-06-21T04:34:18.800Z,7.37
2018-06-21T04:36:45.974Z,7.50
2018-06-21T04:39:13.153Z,7.20
2018-06-21T04:41:40.423Z,7.00
2018-06-21T04:44:07.609Z,6.60
2018-06-21T04:46:35.004Z,7.00
2018-06-21T04:49:02.266Z,6.80
2018-06-21T04:51:29.758Z,6.60
2018-06-21T04:53:57.144Z,6.83
2018-06-21T04:56:24.333Z,7.27
2018-06-21T04:58:51.867Z,6.90
2018-06-21T05:01:19.216Z,6.73
2018-06-21T05:03:46.493Z,7.10
2018-06-21T05:06:13.834Z,6.90
2018-06-21T05:08:41.052Z,9.40
2018-06-21T05:11:08.243Z,8.50
2018-06-21T05:13:35.476Z,10.25
2018-06-21T05:16:02.712Z,10.68
2018-06-21T05:18:29.929Z,8.75
2018-06-21T05:20:57.451Z,8.00
2018-06-21T05:23:24.656Z,7.90
2018-06-21T05:25:51.844Z,7.28
2018-06-21T05:28:19.089Z,8.28
2018-06-21T05:30:46.273Z,7.80
2018-06-21T05:33:13.646Z,8.78
2018-06-21T05:35:40.858Z,8.65
2018-06-21T05:38:08.072Z,8.03
2018-06-21T05:40:36.274Z,8.30
2018-06-21T05:43:04.057Z,7.70
2018-06-21T05:45:31.537Z,6.45
2018-06-21T05:48:00.000Z,6.10
2018-06-21T05:50:28.122Z,6.75
2018-06-21T05:52:56.178Z,6.60
2018-06-21T05:55:23.428Z,5.78
2018-06-21T05:57:50.650Z,6.30
2018-06-21T06:00:17.932Z,5.03
2018-06-21T06:02:45.146Z,5.97
2018-06-21T06:05:12.333Z,5.80
2018-06-21T06:07:39.608Z,5.72
2018-06-21T06:10:07.497Z,5.97
2018-06-21T06:12:34.802Z,5.62
2018-06-21T06:15:03.044Z,5.08
2018-06-21T06:17:30.955Z,4.97
2018-06-21T06:19:59.265Z,3.90
2018-06-21T06:22:27.653Z,4.40
2018-06-21T06:24:54.999Z,5.00
2018-06-21T06:27:22.321Z,3.93
2018-06-21T06:29:49.622Z,4.30
2018-06-21T06:32:17.152Z,3.80
2018-06-21T06:34:44.389Z,3.30
2018-06-21T06:37:11.528Z,3.50
2018-06-21T06:39:38.793Z,3.22
2018-06-21T06:42:06.032Z,3.77
2018-06-21T06:44:33.362Z,3.50
2018-06-21T06:49:27.814Z,4.35
2018-06-21T06:51:55.043Z,4.42
2018-06-21T06:54:22.352Z,4.60
2018-06-21T06:56:49.489Z,5.30
2018-06-21T06:59:16.772Z,4.80
2018-06-21T07:01:44.012Z,5.00
2018-06-21T07:04:11.278Z,5.80
2018-06-21T07:06:38.565Z,5.25
2018-06-21T07:09:07.497Z,5.50
2018-06-21T07:11:35.998Z,4.55
2018-06-21T07:14:03.391Z,4.67
2018-06-21T07:16:30.614Z,5.78
2018-06-21T07:18:57.840Z,4.50
2018-06-21T07:21:25.025Z,4.50
2018-06-21T07:23:55.283Z,5.05
2018-06-21T07:26:22.509Z,4.30
2018-06-21T07:28:49.725Z,4.10
2018-06-21T07:31:16.933Z,4.15
2018-06-21T07:33:44.742Z,4.08
2018-06-21T07:36:12.114Z,4.37
2018-06-21T07:38:39.337Z,4.15
2018-06-21T07:41:07.766Z,3.90
2018-06-21T07:43:34.976Z,3.75
2018-06-21T07:46:05.958Z,3.83
2018-06-21T07:48:33.355Z,3.30
2018-06-21T07:51:00.917Z,2.70
2018-06-21T07:53:28.252Z,2.83
2018-06-21T07:55:55.461Z,2.40
2018-06-21T07:58:22.844Z,2.70
2018-06-21T08:00:50.129Z,2.50
2018-06-21T08:03:17.357Z,2.30
2018-06-21T08:05:44.648Z,2.62
2018-06-21T08:08:11.902Z,2.45
2018-06-21T08:10:39.152Z,2.40
2018-06-21T08:13:06.453Z,2.22
2018-06-21T08:15:33.683Z,2.83
2018-06-21T08:18:00.888Z,2.20
2018-06-21T08:20:28.680Z,2.90
2018-06-21T08:22:55.878Z,2.53
2018-06-21T08:25:23.451Z,2.42
2018-06-21T08:27:50.795Z,2.22
2018-06-21T08:30:18.031Z,2.50
2018-06-21T08:32:45.327Z,2.30
2018-06-21T08:35:12.846Z,2.40
2018-06-21T08:37:40.127Z,1.90
2018-06-21T08:40:07.344Z,2.20
2018-06-21T08:42:34.590Z,2.27
2018-06-21T08:45:02.360Z,2.03
2018-06-21T08:47:29.553Z,2.30
2018-06-21T08:49:57.082Z,2.20
2018-06-21T08:52:24.330Z,2.53
2018-06-21T08:54:51.513Z,2.43
2018-06-21T08:57:18.734Z,2.17
2018-06-21T08:59:45.976Z,2.37
2018-06-21T09:02:13.575Z,2.10
2018-06-21T09:04:40.779Z,2.27
2018-06-21T09:07:07.992Z,1.50
2018-06-21T09:09:35.205Z,1.83
2018-06-21T09:12:02.412Z,2.00
2018-06-21T09:14:29.665Z,2.00
2018-06-21T09:16:56.884Z,1.72
2018-06-21T09:19:24.269Z,2.05
2018-06-21T09:21:51.454Z,2.20
2018-06-21T09:24:20.999Z,1.72
2018-06-21T09:26:48.356Z,1.70
2018-06-21T09:29:15.582Z,1.95
2018-06-21T09:31:42.800Z,1.72
2018-06-21T09:34:10.063Z,1.80
2018-06-21T09:36:39.385Z,1.90
2018-06-21T09:39:15.678Z,1.52
2018-06-21T09:41:48.668Z,1.90
2018-06-21T09:44:21.860Z,2.02
2018-06-21T09:46:54.789Z,1.90
2018-06-21T09:49:26.605Z,2.20
2018-06-21T09:51:54.093Z,1.80
2018-06-21T09:54:21.575Z,2.05
2018-06-21T09:56:48.888Z,1.87
2018-06-21T09:59:16.169Z,2.27
2018-06-21T10:01:43.514Z,2.00
2018-06-21T10:04:10.712Z,1.70
2018-06-21T10:06:38.033Z,1.70
2018-06-21T10:09:05.797Z,2.00
2018-06-21T10:11:33.459Z,1.63
2018-06-21T10:14:00.632Z,2.00
2018-06-21T10:16:27.821Z,2.20
2018-06-21T10:18:55.180Z,1.70
2018-06-21T10:21:22.423Z,2.17
2018-06-21T10:23:49.756Z,2.03
2018-06-21T10:26:16.979Z,2.37
2018-06-21T10:28:44.208Z,3.13
2018-06-21T10:31:11.392Z,2.03
2018-06-21T10:33:38.584Z,3.10
2018-06-21T10:36:05.768Z,2.50
2018-06-21T10:38:32.973Z,2.20
2018-06-21T10:41:00.228Z,2.67
2018-06-21T10:43:28.283Z,2.40
2018-06-21T10:45:55.547Z,2.77
2018-06-21T10:48:22.817Z,2.83
2018-06-21T10:50:50.053Z,2.67
2018-06-21T10:53:17.501Z,3.30
2018-06-21T10:55:44.695Z,3.37
2018-06-21T10:58:11.892Z,3.27
2018-06-21T11:00:39.113Z,2.70
2018-06-21T11:03:06.355Z,2.50
2018-06-21T11:05:33.540Z,3.10
2018-06-21T11:08:00.752Z,2.40
2018-06-21T11:10:28.020Z,2.33
2018-06-21T11:12:55.496Z,2.27
2018-06-21T11:15:22.720Z,2.50
2018-06-21T11:17:49.943Z,2.67
2018-06-21T11:20:17.160Z,3.37
2018-06-21T11:22:44.420Z,2.83
2018-06-21T11:25:11.669Z,2.43
2018-06-21T11:27:38.884Z,2.57
2018-06-21T11:30:06.425Z,2.60
2018-06-21T11:32:34.061Z,2.23
2018-06-21T11:35:01.252Z,2.87
2018-06-21T11:37:28.642Z,2.70
2018-06-21T11:39:56.135Z,2.57
2018-06-21T11:42:25.384Z,2.43
2018-06-21T11:44:52.630Z,2.90
2018-06-21T11:47:19.877Z,2.50
2018-06-21T11:49:48.820Z,2.23
2018-06-21T11:52:16.148Z,3.07
2018-06-21T11:54:43.281Z,2.83
2018-06-21T11:57:10.529Z,2.37
2018-06-21T11:59:37.857Z,2.40
2018-06-21T12:02:05.029Z,2.67
2018-06-21T12:09:26.001Z,2.30
2018-06-21T12:11:53.191Z,2.47
2018-06-21T12:14:20.507Z,2.12
2018-06-21T12:16:47.764Z,2.30
2018-06-21T12:19:14.994Z,1.80
2018-06-21T12:21:42.230Z,1.30
2018-06-21T12:24:09.427Z,1.47
2018-06-21T12:26:36.669Z,1.50
2018-06-21T12:29:04.084Z,1.00
2018-06-21T12:31:31.392Z,1.40
2018-06-21T12:33:58.596Z,1.22
2018-06-21T12:36:25.807Z,1.30
2018-06-21T12:38:53.179Z,1.40
2018-06-21T12:41:20.393Z,1.40
2018-06-21T12:43:47.680Z,1.62
2018-06-21T12:46:15.001Z,1.57
2018-06-21T12:48:42.198Z,1.60
2018-06-21T12:56:03.201Z,1.50
2018-06-21T12:58:30.447Z,1.80
2018-06-21T13:00:57.743Z,1.70
2018-06-21T13:03:25.326Z,1.57
2018-06-21T13:05:52.506Z,1.60
2018-06-21T13:11:03.788Z,1.72
2018-06-21T13:13:30.957Z,1.27
2018-06-21T13:19:12.750Z,1.80
2018-06-21T13:22:43.403Z,1.37
2018-06-21T13:25:10.660Z,1.80
2018-06-21T13:27:37.967Z,1.70
2018-06-21T13:30:07.547Z,1.47
2018-06-21T13:39:55.230Z,0.90
2018-06-21T13:42:22.462Z,1.30
2018-06-21T14:16:38.021Z,1.30
2018-06-21T14:19:05.645Z,1.70
2018-06-21T14:21:32.937Z,2.60
2018-06-21T14:24:00.160Z,1.50
2018-06-21T14:26:27.425Z,1.40
2018-06-21T14:28:55.210Z,1.42
2018-06-21T14:31:23.320Z,1.30
2018-06-21T14:33:50.585Z,1.70
2018-06-21T14:36:17.972Z,1.30
2018-06-21T14:38:45.182Z,1.60
2018-06-21T14:41:12.393Z,1.83
2018-06-21T14:43:39.849Z,2.27
2018-06-21T14:46:07.043Z,1.60
2018-06-21T14:51:00.997Z,1.20
2018-06-21T14:53:28.268Z,1.50
2018-06-21T14:55:55.461Z,1.35
2018-06-21T14:58:22.723Z,1.90
2018-06-21T15:13:04.030Z,1.80
2018-06-21T15:15:31.461Z,1.70
2018-06-21T15:17:58.629Z,2.00
2018-06-21T15:20:25.857Z,1.90
2018-06-21T15:22:53.736Z,1.50
2018-06-21T15:25:20.951Z,1.40
2018-06-21T15:27:48.258Z,1.60
2018-06-21T15:30:15.530Z,1.80
2018-06-21T15:32:42.752Z,1.50
2018-06-21T15:35:09.989Z,1.80
2018-06-21T15:37:37.204Z,2.60
2018-06-21T15:40:04.460Z,1.60
2018-06-21T15:42:31.603Z,1.57
2018-06-21T15:44:58.873Z,1.85
2018-06-21T15:47:26.069Z,1.80
2018-06-21T15:49:53.488Z,1.57
2018-06-21T15:52:20.716Z,1.20
2018-06-21T15:54:47.934Z,2.20
2018-06-21T15:57:15.477Z,1.85
2018-06-21T15:59:42.721Z,2.12
2018-06-21T16:02:09.958Z,3.27
2018-06-21T16:04:37.155Z,2.70
2018-06-21T16:07:04.359Z,1.80
2018-06-21T16:09:31.629Z,1.73
2018-06-21T16:11:58.985Z,2.10
2018-06-21T16:14:26.378Z,4.00
2018-06-21T16:16:53.594Z,3.10
2018-06-21T16:19:20.920Z,2.93
2018-06-21T16:21:48.132Z,2.10
2018-06-21T16:24:15.449Z,2.47
2018-06-21T16:26:43.468Z,3.43
2018-06-21T16:29:10.661Z,2.10
2018-06-21T16:31:37.879Z,2.30
2018-06-21T16:34:05.224Z,1.90
2018-06-21T16:36:32.483Z,1.80
2018-06-21T16:38:59.714Z,3.07
2018-06-21T16:41:27.017Z,2.03
2018-06-21T16:43:54.192Z,2.73
2018-06-21T16:46:23.267Z,2.20
2018-06-21T16:48:50.500Z,2.10
2018-06-21T16:51:17.721Z,1.90
2018-06-21T16:53:45.352Z,2.72
2018-06-21T16:56:12.577Z,2.17
2018-06-21T16:58:39.761Z,2.17
2018-06-21T17:01:07.345Z,2.00
2018-06-21T17:03:34.631Z,2.20
2018-06-21T17:06:01.810Z,2.30
2018-06-21T17:08:29.064Z,2.30
2018-06-21T17:10:56.445Z,2.30
2018-06-21T17:13:23.661Z,2.60
2018-06-21T17:15:50.897Z,2.77
2018-06-21T17:18:18.105Z,3.00
2018-06-21T17:20:45.329Z,3.00
2018-06-21T17:23:12.508Z,3.07
2018-06-21T17:25:39.779Z,3.03
2018-06-21T17:28:07.029Z,3.20
2018-06-21T17:30:34.255Z,3.20
2018-06-21T17:33:01.492Z,2.70
2018-06-21T17:35:29.020Z,3.27
2018-06-21T17:37:56.243Z,3.00
2018-06-21T17:40:23.804Z,2.30
2018-06-21T17:42:50.989Z,3.03
2018-06-21T17:45:18.195Z,2.97
2018-06-21T17:47:45.438Z,2.60
2018-06-21T17:50:12.633Z,2.23
2018-06-21T17:52:39.824Z,2.30
2018-06-21T17:55:07.009Z,1.90
2018-06-21T17:57:34.339Z,1.97
2018-06-21T18:00:01.569Z,2.30
2018-06-21T18:02:28.817Z,2.20
2018-06-21T18:04:56.005Z,2.97
2018-06-21T18:07:23.257Z,2.37
2018-06-21T18:09:50.644Z,2.30
2018-06-21T18:12:17.884Z,2.60
2018-06-21T18:14:45.388Z,2.27
2018-06-21T18:17:12.686Z,1.73
2018-06-21T18:19:39.935Z,2.77
2018-06-21T18:22:07.153Z,2.27
2018-06-21T18:24:34.341Z,2.60
2018-06-21T18:27:01.542Z,2.43
2018-06-21T18:29:28.783Z,3.40
2018-06-21T18:31:56.047Z,3.77
2018-06-21T18:34:23.286Z,3.23
2018-06-21T18:36:50.905Z,3.50
2018-06-21T18:39:18.217Z,2.80
2018-06-21T18:41:45.501Z,2.30
2018-06-21T18:44:12.763Z,3.73
2018-06-21T18:46:40.034Z,2.70
2018-06-21T18:49:07.211Z,3.37
2018-06-21T18:51:34.701Z,1.93
2018-06-21T18:54:01.910Z,2.47
2018-06-21T18:56:29.108Z,2.77
2018-06-21T18:58:56.387Z,2.30
2018-06-21T19:01:23.701Z,2.10
2018-06-21T19:03:51.471Z,2.17
2018-06-21T19:06:24.667Z,2.13
2018-06-21T19:08:57.550Z,2.20
2018-06-21T19:11:30.440Z,1.90
2018-06-21T19:13:57.689Z,2.00
2018-06-21T19:16:24.918Z,1.67
2018-06-21T19:18:52.129Z,2.00
2018-06-21T19:21:19.352Z,2.30
2018-06-21T19:23:46.551Z,2.13
2018-06-21T19:26:13.762Z,2.10
2018-06-21T19:28:41.333Z,2.10
2018-06-21T19:31:08.578Z,2.47
2018-06-21T19:33:35.786Z,2.83
2018-06-21T19:36:03.049Z,2.50
2018-06-21T19:38:30.289Z,1.93
2018-06-21T19:40:58.830Z,2.30
2018-06-21T19:43:26.311Z,2.20
2018-06-21T19:45:53.713Z,2.50
2018-06-21T19:48:21.063Z,2.50
2018-06-21T19:50:48.419Z,2.20
2018-06-21T19:53:15.634Z,2.30
2018-06-21T19:55:42.902Z,2.60
2018-06-21T19:58:10.893Z,2.37
2018-06-21T20:00:38.417Z,1.80
2018-06-21T20:03:05.629Z,2.80
2018-06-21T20:05:32.874Z,2.43
2018-06-21T20:08:00.073Z,3.23
2018-06-21T20:10:27.323Z,3.17
2018-06-21T20:12:54.648Z,2.50
2018-06-21T20:15:24.435Z,2.90
2018-06-21T20:17:51.624Z,3.47
2018-06-21T20:20:24.789Z,2.23
2018-06-21T20:22:52.060Z,2.30
2018-06-21T20:25:19.305Z,2.47
2018-06-21T20:27:46.493Z,2.03
2018-06-21T20:30:13.680Z,2.23
2018-06-21T20:32:40.942Z,2.60
2018-06-21T20:35:08.119Z,2.33
2018-06-21T20:37:35.338Z,2.40
2018-06-21T20:40:02.556Z,2.43
2018-06-21T20:42:29.741Z,3.00
2018-06-21T20:44:57.103Z,2.53
2018-06-21T20:47:24.297Z,2.73
2018-06-21T20:49:51.533Z,3.10
2018-06-21T20:52:24.997Z,2.77
2018-06-21T20:54:52.193Z,3.00
2018-06-21T20:57:19.364Z,3.17
2018-06-21T20:59:46.675Z,3.20
2018-06-21T21:02:13.867Z,3.20
2018-06-21T21:05:17.704Z,3.30
2018-06-21T21:07:47.246Z,2.80
2018-06-21T21:10:15.531Z,3.33
2018-06-21T21:12:43.961Z,2.67
2018-06-21T21:15:12.069Z,3.03
2018-06-21T21:17:39.225Z,2.43
2018-06-21T21:20:07.017Z,2.93
2018-06-21T21:22:35.034Z,2.80
2018-06-21T21:25:02.224Z,2.97
2018-06-21T21:27:29.428Z,2.90
2018-06-21T21:29:56.616Z,3.03
2018-06-21T21:32:24.497Z,2.63
2018-06-21T21:34:51.738Z,3.20
2018-06-21T21:37:18.932Z,3.10
2018-06-21T21:39:46.158Z,3.77
2018-06-21T21:42:13.316Z,3.20
2018-06-21T21:44:40.603Z,2.73
2018-06-21T21:47:08.098Z,2.43
2018-06-21T21:49:35.306Z,2.73
2018-06-21T21:52:02.450Z,2.40
2018-06-21T21:54:29.645Z,2.40
2018-06-21T21:56:56.868Z,2.50
2018-06-21T21:59:24.381Z,2.57
2018-06-21T22:01:52.643Z,2.60
2018-06-21T22:04:19.850Z,2.57
2018-06-21T22:06:47.083Z,2.33
2018-06-21T22:09:14.583Z,2.10
2018-06-21T22:11:41.858Z,2.23
2018-06-21T22:14:09.075Z,2.77
2018-06-21T22:16:36.585Z,2.77
2018-06-21T22:19:03.970Z,3.30
2018-06-21T22:21:31.800Z,2.57
2018-06-21T22:23:58.940Z,3.57
2018-06-21T22:26:26.714Z,3.33
2018-06-21T22:28:53.938Z,2.60
2018-06-21T22:31:21.160Z,3.40
2018-06-21T22:33:48.413Z,2.50
2018-06-21T22:36:15.641Z,3.63
2018-06-21T22:38:42.786Z,3.10
2018-06-21T22:41:09.979Z,3.43
2018-06-21T22:43:37.818Z,3.27
2018-06-21T22:46:06.329Z,3.17
2018-06-21T22:48:33.808Z,3.50
2018-06-21T22:51:01.037Z,3.87
2018-06-21T22:53:28.272Z,2.93
2018-06-21T22:55:55.457Z,2.40
2018-06-21T22:58:22.679Z,2.80
2018-06-21T23:00:49.823Z,2.77
2018-06-21T23:03:17.098Z,2.30
2018-06-21T23:05:44.506Z,2.40
2018-06-21T23:08:11.655Z,2.17
2018-06-21T23:11:42.209Z,2.40
2018-06-21T23:14:09.448Z,2.90
2018-06-21T23:16:36.694Z,2.50
2018-06-21T23:19:15.724Z,2.43
2018-06-21T23:21:42.905Z,2.27
2018-06-21T23:24:10.113Z,2.93
2018-06-21T23:26:37.311Z,2.57
2018-06-21T23:29:04.510Z,2.60
2018-06-21T23:31:31.648Z,3.60
2018-06-21T23:33:58.834Z,2.37
2018-06-21T23:36:26.078Z,2.50
2018-06-21T23:38:53.229Z,2.33
2018-06-21T23:41:20.385Z,2.07
2018-06-21T23:43:47.617Z,2.40
2018-06-21T23:46:14.816Z,2.50
2018-06-21T23:48:41.993Z,1.97
2018-06-21T23:51:09.193Z,2.10
2018-06-21T23:53:36.377Z,2.00
2018-06-21T23:56:03.589Z,2.70
2018-06-21T23:58:30.792Z,1.90
